Terminal Aerodrome Forecast
Issued by NWS

Home | Current Version | Previous Version | Text Only | Print | Product List | Glossary On
Versions: 1 2 3 4 5 6 7 8 9 10 11 12 13 14 15 16 17
000
FTUS46 KSEW 300537
TAFOLM
TAF
KOLM 300537Z 3006/3106 22008KT P6SM -RA OVC030
      TEMPO 3006/3008 3SM RA
     FM300800 22008KT P6SM -SHRA SCT020 BKN035 BKN050
     FM302000 22012KT P6SM BKN035 BKN060=

USA.gov is the U.S. government's official web portal to all federal, state and local government web resources and services.